Laranjal, Brazil
Current Conditions -  °F | °C
As of 11:00 AM on Friday 24 Oct 2014 (Local Time) from SBCP Reporting Station
Broken Clouds Broken Clouds  
Wind Chill: 81°   Ceiling: 2000
Heat Index: 82°   Visibility: 6mi
Dew Point: 64°   Wind: 14mph
Humidity: 58%   Direction: 90°E
Pressure: 30.03"   Gusts: NA
Location:  21.37°S, 42.48°W
Report Text: SBCP 241300Z 09012KT 9999 BKN020 27/18 Q1017
Loading
Personal Weather Stations






























Interactive Weather Map
Tropical Storm Tracking
New forecast layout! Learn more

10-Day Weather Forecast

Advertisements
Track Severe Weather on mobile